createdAt,value
2022-11-23T00:01:23.671Z,98340.00
2022-11-23T00:03:52.784Z,98342.34
2022-11-23T00:06:21.759Z,98340.84
2022-11-23T00:08:49.529Z,98340.13
2022-11-23T00:11:17.661Z,98323.47
2022-11-23T00:13:45.484Z,98340.56
2022-11-23T00:16:17.767Z,98338.19
2022-11-23T00:18:45.054Z,98339.31
2022-11-23T00:21:17.700Z,98336.00
2022-11-23T00:23:45.601Z,98338.06
2022-11-23T00:26:13.311Z,98334.91
2022-11-23T00:28:41.167Z,98318.91
2022-11-23T00:31:13.923Z,98336.97
2022-11-23T00:33:41.378Z,98334.63
2022-11-23T00:36:14.171Z,98330.44
2022-11-23T00:38:42.527Z,98324.44
2022-11-23T00:41:12.273Z,98317.63
2022-11-23T00:43:39.445Z,98327.53
2022-11-23T00:46:13.265Z,98320.69
2022-11-23T00:48:40.481Z,98317.22
2022-11-23T00:51:12.621Z,98315.72
2022-11-23T00:53:39.656Z,98321.97
2022-11-23T00:56:06.851Z,98321.28
2022-11-23T00:58:33.882Z,98306.25
2022-11-23T01:01:02.713Z,98316.25
2022-11-23T01:03:30.471Z,98316.25
2022-11-23T01:06:03.307Z,98317.38
2022-11-23T01:08:30.220Z,98309.56
2022-11-23T01:11:02.054Z,98304.59
2022-11-23T01:13:29.922Z,98285.25
2022-11-23T01:15:56.896Z,98302.09
2022-11-23T01:18:24.449Z,98295.13
2022-11-23T01:20:51.842Z,98299.59
2022-11-23T01:23:18.752Z,98292.78
2022-11-23T01:25:45.684Z,98313.19
2022-11-23T01:28:12.742Z,98290.41
2022-11-23T01:30:39.745Z,98295.13
2022-11-23T01:33:06.556Z,98287.09
2022-11-23T01:35:33.604Z,98290.13
2022-11-23T01:38:00.476Z,98291.13
2022-11-23T01:40:27.435Z,98276.13
2022-11-23T01:42:57.506Z,98288.75
2022-11-23T01:45:35.264Z,98287.09
2022-11-23T01:48:05.103Z,98294.31
2022-11-23T01:50:31.995Z,98294.31
2022-11-23T01:52:58.845Z,98290.16
2022-11-23T01:55:26.968Z,98284.03
2022-11-23T01:57:55.041Z,98284.03
2022-11-23T02:00:21.918Z,98262.94
2022-11-23T02:02:57.151Z,98271.00
2022-11-23T02:05:31.209Z,98267.50
2022-11-23T02:08:00.856Z,98265.72
2022-11-23T02:10:29.699Z,98275.69
2022-11-23T02:12:56.564Z,98274.84
2022-11-23T02:15:23.406Z,98275.69
2022-11-23T02:17:50.352Z,98284.72
2022-11-23T02:20:19.402Z,98260.97
2022-11-23T02:22:54.482Z,98277.78
2022-11-23T02:25:40.169Z,98269.00
2022-11-23T02:28:07.641Z,98263.72
2022-11-23T02:30:37.097Z,98256.81
2022-11-23T02:33:06.369Z,98261.25
2022-11-23T02:35:34.568Z,98253.19
2022-11-23T02:38:06.956Z,98247.22
2022-11-23T02:40:36.614Z,98232.38
2022-11-23T02:43:03.884Z,98212.06
2022-11-23T02:45:30.656Z,98222.78
2022-11-23T02:47:57.608Z,98220.97
2022-11-23T02:50:24.357Z,98208.75
2022-11-23T02:52:51.219Z,98216.81
2022-11-23T02:55:18.166Z,98206.38
2022-11-23T02:57:45.082Z,98203.63
2022-11-23T03:00:12.790Z,98192.34
2022-11-23T03:02:39.659Z,98178.31
2022-11-23T03:05:06.965Z,98185.41
2022-11-23T03:07:33.831Z,98181.09
2022-11-23T03:10:00.706Z,98169.56
2022-11-23T03:12:27.791Z,98184.72
2022-11-23T03:14:54.590Z,98187.50
2022-11-23T03:17:21.450Z,98178.03
2022-11-23T03:19:48.441Z,98177.09
2022-11-23T03:22:15.301Z,98179.72
2022-11-23T03:24:42.165Z,98170.28
2022-11-23T03:27:09.050Z,98157.91
2022-11-23T03:29:35.892Z,98151.81
2022-11-23T03:32:02.848Z,98151.81
2022-11-23T03:34:29.647Z,98148.34
2022-11-23T03:36:56.587Z,98159.84
2022-11-23T03:39:23.588Z,98153.72
2022-11-23T03:41:50.452Z,98157.38
2022-11-23T03:44:17.346Z,98145.84
2022-11-23T03:46:44.267Z,98146.13
2022-11-23T03:49:11.140Z,98140.69
2022-11-23T03:51:38.036Z,98139.03
2022-11-23T03:54:05.089Z,98139.84
2022-11-23T03:56:31.921Z,98111.69
2022-11-23T03:58:58.745Z,98128.47
2022-11-23T04:01:26.259Z,98109.88
2022-11-23T04:03:53.169Z,98125.97
2022-11-23T04:06:20.029Z,98125.16
2022-11-23T04:08:46.897Z,98119.88
2022-11-23T04:11:13.875Z,98123.50
2022-11-23T04:13:40.759Z,98131.25
2022-11-23T04:16:08.198Z,98125.16
2022-11-23T04:18:35.171Z,98119.88
2022-11-23T04:21:02.275Z,98105.84
2022-11-23T04:23:29.139Z,98101.41
2022-11-23T04:25:55.973Z,98090.84
2022-11-23T04:28:22.808Z,98073.50
2022-11-23T04:30:49.671Z,98071.53
2022-11-23T04:33:16.632Z,98061.81
2022-11-23T04:35:43.505Z,98066.13
2022-11-23T04:38:10.322Z,98068.78
2022-11-23T04:40:37.433Z,98060.47
2022-11-23T04:43:04.387Z,98047.66
2022-11-23T04:45:31.311Z,98050.47
2022-11-23T04:47:58.115Z,98044.09
2022-11-23T04:50:24.959Z,98046.44
2022-11-23T04:52:51.769Z,98043.00
2022-11-23T04:55:18.632Z,98027.16
2022-11-23T04:57:45.420Z,98044.09
2022-11-23T05:00:13.089Z,98018.56
2022-11-23T05:02:39.874Z,98029.41
2022-11-23T05:05:06.986Z,98038.28
2022-11-23T05:07:33.833Z,98029.53
2022-11-23T05:10:00.694Z,98028.84
2022-11-23T05:12:27.486Z,98023.56
2022-11-23T05:14:54.308Z,98026.19
2022-11-23T05:17:21.107Z,98017.59
2022-11-23T05:19:47.910Z,98014.97
2022-11-23T05:22:14.760Z,98011.63
2022-11-23T05:24:41.598Z,98003.72
2022-11-23T05:27:08.483Z,97993.16
2022-11-23T05:29:35.448Z,97983.59
2022-11-23T05:32:02.340Z,97965.03
2022-11-23T05:34:29.256Z,97973.06
2022-11-23T05:36:56.157Z,97960.84
2022-11-23T05:39:23.424Z,97956.56
2022-11-23T05:41:50.252Z,97931.88
2022-11-23T05:44:17.456Z,97937.25
2022-11-23T05:46:44.320Z,97931.16
2022-11-23T05:49:11.277Z,97913.66
2022-11-23T05:51:38.177Z,97908.25
2022-11-23T05:54:05.278Z,97917.97
2022-11-23T05:56:34.720Z,97911.00
2022-11-23T05:59:05.590Z,97912.00
2022-11-23T06:01:33.383Z,97923.34
2022-11-23T06:04:00.276Z,97914.63
2022-11-23T06:06:27.158Z,97915.59
2022-11-23T06:08:53.963Z,97909.50
2022-11-23T06:11:20.817Z,97926.16
2022-11-23T06:13:48.555Z,97920.88
2022-11-23T06:16:15.905Z,97917.56
2022-11-23T06:18:42.708Z,97922.84
2022-11-23T06:21:09.599Z,97915.88
2022-11-23T06:23:36.428Z,97869.28
2022-11-23T06:26:03.256Z,97872.88
2022-11-23T06:28:30.254Z,97862.31
2022-11-23T06:31:02.621Z,97872.06
2022-11-23T06:33:29.580Z,97871.22
2022-11-23T06:35:58.716Z,97869.41
2022-11-23T06:38:26.193Z,97870.38
2022-11-23T06:40:53.097Z,97862.47
2022-11-23T06:43:19.916Z,97859.00
2022-11-23T06:45:46.735Z,97854.56
2022-11-23T06:48:14.373Z,97832.66
2022-11-23T06:50:41.333Z,97852.91
2022-11-23T06:53:12.460Z,97845.97
2022-11-23T06:55:39.335Z,97854.69
2022-11-23T06:58:06.851Z,97845.13
2022-11-23T07:00:34.329Z,97840.72
2022-11-23T07:03:01.440Z,97830.97
2022-11-23T07:05:28.458Z,97837.34
2022-11-23T07:07:59.036Z,97833.06
2022-11-23T07:10:26.180Z,97832.09
2022-11-23T07:12:53.302Z,97846.22
2022-11-23T07:15:20.246Z,97848.03
2022-11-23T07:17:47.093Z,97846.22
2022-11-23T07:20:14.468Z,97841.91
2022-11-23T07:22:41.705Z,97849.84
2022-11-23T07:25:08.999Z,97830.59
2022-11-23T07:27:35.869Z,97842.09
2022-11-23T07:30:03.125Z,97839.56
2022-11-23T07:32:30.622Z,97840.41
2022-11-23T07:34:57.460Z,97830.03
2022-11-23T07:37:24.373Z,97817.69
2022-11-23T07:39:57.882Z,97821.28
2022-11-23T07:42:36.942Z,97797.16
2022-11-23T07:45:07.536Z,97803.78
2022-11-23T07:47:34.564Z,97801.03
2022-11-23T07:50:01.417Z,97814.84
2022-11-23T07:52:28.425Z,97797.09
2022-11-23T07:54:55.309Z,97798.66
2022-11-23T07:57:22.254Z,97812.75
2022-11-23T07:59:49.209Z,97811.50
2022-11-23T08:02:16.465Z,97812.88
2022-11-23T08:04:43.496Z,97798.38
2022-11-23T08:07:10.560Z,97804.09
2022-11-23T08:09:37.650Z,97794.88
2022-11-23T08:12:05.291Z,97793.63
2022-11-23T08:14:32.628Z,97790.66
2022-11-23T08:16:59.821Z,97763.91
2022-11-23T08:19:26.815Z,97788.28
2022-11-23T08:21:53.903Z,97786.16
2022-11-23T08:24:20.975Z,97780.56
2022-11-23T08:26:50.640Z,97787.38
2022-11-23T08:29:17.541Z,97765.19
2022-11-23T08:31:44.534Z,97784.28
2022-11-23T08:34:11.529Z,97777.88
2022-11-23T08:36:38.566Z,97776.38
2022-11-23T08:39:05.559Z,97777.34
2022-11-23T08:41:32.460Z,97767.38
2022-11-23T08:43:59.461Z,97745.53
2022-11-23T08:46:26.576Z,97759.91
2022-11-23T08:48:53.680Z,97765.38
2022-11-23T08:51:23.160Z,97763.03
2022-11-23T08:53:50.809Z,97759.53
2022-11-23T08:56:18.450Z,97759.53
2022-11-23T08:58:45.644Z,97748.22
2022-11-23T09:01:15.149Z,97749.00
2022-11-23T09:03:42.844Z,97728.34
2022-11-23T09:06:10.365Z,97739.28
2022-11-23T09:08:38.203Z,97736.63
2022-11-23T09:11:08.414Z,97729.69
2022-11-23T09:13:37.454Z,97712.81
2022-11-23T09:16:06.201Z,97718.09
2022-11-23T09:18:33.835Z,97723.56
2022-11-23T09:21:06.150Z,97707.53
2022-11-23T09:23:33.797Z,97713.88
2022-11-23T09:26:02.653Z,97699.69
2022-11-23T09:28:30.110Z,97682.84
2022-11-23T09:30:57.913Z,97694.94
2022-11-23T09:33:25.741Z,97687.56
2022-11-23T09:36:00.500Z,97677.13
2022-11-23T09:38:51.617Z,97643.16
2022-11-23T09:41:33.402Z,97631.72
2022-11-23T09:44:11.867Z,97634.75
2022-11-23T09:46:59.790Z,97648.63
2022-11-23T09:50:03.615Z,97629.22
2022-11-23T09:52:31.769Z,97642.34
2022-11-23T09:55:04.617Z,97641.69
2022-11-23T09:57:35.880Z,97625.03
2022-11-23T10:00:07.779Z,97634.75
2022-11-23T10:02:40.400Z,97615.38
2022-11-23T10:05:08.452Z,97636.41
2022-11-23T10:08:06.481Z,97634.75
2022-11-23T10:10:57.994Z,97610.09
2022-11-23T10:13:43.466Z,97618.97
2022-11-23T10:16:19.671Z,97640.34
2022-11-23T10:19:13.017Z,97628.13
2022-11-23T10:22:00.229Z,97629.22
2022-11-23T10:24:38.585Z,97626.44
2022-11-23T10:27:16.950Z,97621.88
2022-11-23T10:29:45.859Z,97620.94
2022-11-23T10:32:37.561Z,97610.47
2022-11-23T10:35:14.571Z,97618.06
2022-11-23T10:37:42.416Z,97616.03
2022-11-23T10:40:29.915Z,97602.41
2022-11-23T10:43:03.523Z,97619.34
2022-11-23T10:45:32.202Z,97612.28
2022-11-23T10:48:02.642Z,97612.94
2022-11-23T10:50:41.566Z,97619.19
2022-11-23T10:53:08.930Z,97598.69
2022-11-23T10:55:49.221Z,97598.56
2022-11-23T10:58:45.012Z,97602.91
2022-11-23T11:01:31.151Z,97611.72
2022-11-23T11:04:06.853Z,97609.59
2022-11-23T11:06:36.425Z,97607.66
2022-11-23T11:09:18.634Z,97584.84
2022-11-23T11:11:53.055Z,97595.22
2022-11-23T11:14:23.853Z,97602.41
2022-11-23T11:17:01.371Z,97603.66
2022-11-23T11:19:35.969Z,97592.94
2022-11-23T11:22:25.002Z,97584.09
2022-11-23T11:24:57.160Z,97589.72
2022-11-23T11:27:29.893Z,97585.97
2022-11-23T11:30:23.799Z,97595.22
2022-11-23T11:33:17.953Z,97595.47
2022-11-23T11:35:50.876Z,97591.88
2022-11-23T11:38:37.809Z,97598.63
2022-11-23T11:41:11.224Z,97587.03
2022-11-23T11:44:13.280Z,97603.94
2022-11-23T11:46:48.143Z,97591.34
2022-11-23T11:49:32.000Z,97601.50
2022-11-23T11:52:08.590Z,97605.16
2022-11-23T11:54:56.891Z,97609.19
2022-11-23T11:57:36.926Z,97605.06
2022-11-23T12:00:13.387Z,97610.31
2022-11-23T12:03:04.605Z,97606.75
2022-11-23T12:05:48.721Z,97601.75
2022-11-23T12:08:38.405Z,97594.53
2022-11-23T12:11:07.037Z,97591.69
2022-11-23T12:13:36.792Z,97592.47
2022-11-23T12:16:25.849Z,97578.63
2022-11-23T12:19:20.540Z,97577.72
2022-11-23T12:22:13.994Z,97580.44
2022-11-23T12:25:12.012Z,97585.44
2022-11-23T12:27:57.424Z,97573.09
2022-11-23T12:30:31.870Z,97584.16
2022-11-23T12:33:26.827Z,97585.50
2022-11-23T12:36:02.791Z,97584.53
2022-11-23T12:39:00.763Z,97559.75
2022-11-23T12:41:44.748Z,97564.13
2022-11-23T12:44:48.018Z,97558.78
2022-11-23T12:47:24.222Z,97582.28
2022-11-23T12:50:10.766Z,97586.59
2022-11-23T12:52:49.544Z,97569.03
2022-11-23T12:55:44.369Z,97568.75
2022-11-23T12:58:28.037Z,97579.19
2022-11-23T13:01:03.315Z,97556.31
2022-11-23T13:03:33.245Z,97547.44
2022-11-23T13:06:29.644Z,97561.41
2022-11-23T13:09:08.694Z,97568.34
2022-11-23T13:11:52.635Z,97557.59
2022-11-23T13:14:57.767Z,97571.28
2022-11-23T13:17:48.156Z,97582.75
2022-11-23T13:20:20.981Z,97566.09
2022-11-23T13:22:48.584Z,97572.03
2022-11-23T13:25:21.633Z,97564.88
2022-11-23T13:27:48.847Z,97579.81
2022-11-23T13:30:59.604Z,97594.78
2022-11-23T13:33:32.851Z,97596.59
2022-11-23T13:36:09.412Z,97609.63
2022-11-23T13:38:43.598Z,97605.19
2022-11-23T13:41:35.215Z,97609.34
2022-11-23T13:44:27.323Z,97600.72
2022-11-23T13:47:15.084Z,97591.94
2022-11-23T13:49:49.442Z,97603.25
2022-11-23T13:52:22.631Z,97594.25
2022-11-23T13:55:09.294Z,97588.84
2022-11-23T13:57:39.295Z,97600.44
2022-11-23T14:00:43.898Z,97608.03
2022-11-23T14:03:49.644Z,97598.94
2022-11-23T14:06:28.916Z,97584.78
2022-11-23T14:09:14.471Z,97607.47
2022-11-23T14:12:13.163Z,97614.53
2022-11-23T14:14:46.127Z,97629.22
2022-11-23T14:17:46.515Z,97629.91
2022-11-23T14:20:30.065Z,97618.44
2022-11-23T14:23:34.469Z,97643.94
2022-11-23T14:26:20.324Z,97644.59
2022-11-23T14:29:13.761Z,97648.06
2022-11-23T14:31:59.098Z,97642.81
2022-11-23T14:34:45.007Z,97647.84
2022-11-23T14:37:19.929Z,97660.59
2022-11-23T14:40:05.160Z,97652.56
2022-11-23T14:42:40.458Z,97666.69
2022-11-23T14:45:12.801Z,97678.03
2022-11-23T14:47:39.840Z,97671.97
2022-11-23T14:50:20.601Z,97682.50
2022-11-23T14:52:47.843Z,97684.31
2022-11-23T14:55:23.040Z,97686.94
2022-11-23T14:57:53.034Z,97690.56
2022-11-23T15:00:35.279Z,97688.75
2022-11-23T15:03:34.501Z,97688.06
2022-11-23T15:06:11.320Z,97695.00
2022-11-23T15:08:57.787Z,97697.75
2022-11-23T15:11:29.651Z,97701.22
2022-11-23T15:14:02.517Z,97709.13
2022-11-23T15:16:30.334Z,97710.94
2022-11-23T15:18:57.561Z,97717.19
2022-11-23T15:21:29.032Z,97707.38
2022-11-23T15:23:58.108Z,97723.28
2022-11-23T15:26:48.895Z,97728.56
2022-11-23T15:29:33.943Z,97728.44
2022-11-23T15:34:49.820Z,97719.69
2022-11-23T15:37:18.009Z,97729.41
2022-11-23T15:39:46.946Z,97739.09
2022-11-23T15:42:20.317Z,97719.72
2022-11-23T15:44:51.184Z,97743.53
2022-11-23T15:47:28.161Z,97743.53
2022-11-23T15:50:03.404Z,97752.44
2022-11-23T15:52:36.133Z,97756.88
2022-11-23T15:55:10.308Z,97751.59
2022-11-23T15:57:39.923Z,97757.72
2022-11-23T16:00:08.419Z,97756.88
2022-11-23T16:02:37.311Z,97745.56
2022-11-23T16:05:13.471Z,97763.97
2022-11-23T16:08:02.577Z,97764.13
2022-11-23T16:10:33.248Z,97754.44
2022-11-23T16:13:02.290Z,97772.03
2022-11-23T16:15:32.812Z,97758.47
2022-11-23T16:18:03.800Z,97768.56
2022-11-23T16:20:31.688Z,97775.63
2022-11-23T16:23:00.764Z,97773.00
2022-11-23T16:25:33.717Z,97779.22
2022-11-23T16:28:17.572Z,97784.66
2022-11-23T16:30:46.700Z,97784.66
2022-11-23T16:33:19.050Z,97786.47
2022-11-23T16:35:47.197Z,97768.63
2022-11-23T16:38:14.569Z,97785.50
2022-11-23T16:40:42.887Z,97782.97
2022-11-23T16:43:12.608Z,97796.31
2022-11-23T16:45:41.846Z,97785.78
2022-11-23T16:48:27.763Z,97790.22
2022-11-23T16:50:57.156Z,97770.69
2022-11-23T16:53:47.190Z,97794.53
2022-11-23T16:56:22.737Z,97784.94
2022-11-23T16:58:50.731Z,97775.41
2022-11-23T17:01:23.972Z,97782.47
2022-11-23T17:03:51.609Z,97786.06
2022-11-23T17:06:23.363Z,97778.84
2022-11-23T17:08:59.285Z,97779.00
2022-11-23T17:11:29.427Z,97784.28
2022-11-23T17:13:57.373Z,97790.38
2022-11-23T17:16:27.064Z,97795.78
2022-11-23T17:18:54.692Z,97794.97
2022-11-23T17:21:21.908Z,97798.41
2022-11-23T17:23:49.180Z,97794.13
2022-11-23T17:26:28.516Z,97789.00
2022-11-23T17:28:55.781Z,97798.56
2022-11-23T17:31:23.636Z,97803.69
2022-11-23T17:33:50.658Z,97803.84
2022-11-23T17:36:18.068Z,97801.22
2022-11-23T17:38:47.521Z,97793.03
2022-11-23T17:41:14.996Z,97814.38
2022-11-23T17:43:42.206Z,97804.69
2022-11-23T17:46:21.872Z,97817.97
2022-11-23T17:48:54.296Z,97811.06
2022-11-23T17:51:21.382Z,97813.72
2022-11-23T17:53:48.509Z,97804.97
2022-11-23T17:56:23.572Z,97812.03
2022-11-23T17:58:52.729Z,97818.28
2022-11-23T18:01:21.747Z,97818.28
2022-11-23T18:03:49.209Z,97822.72
2022-11-23T18:06:22.937Z,97826.34
2022-11-23T18:08:51.258Z,97815.84
2022-11-23T18:11:19.367Z,97830.09
2022-11-23T18:13:48.999Z,97834.41
2022-11-23T18:16:18.135Z,97835.47
2022-11-23T18:18:45.129Z,97816.97
2022-11-23T18:21:14.620Z,97838.97
2022-11-23T18:23:44.885Z,97853.13
2022-11-23T18:26:18.457Z,97847.16
2022-11-23T18:28:46.180Z,97849.78
2022-11-23T18:31:13.200Z,97862.16
2022-11-23T18:33:40.639Z,97854.38
2022-11-23T18:36:08.600Z,97841.06
2022-11-23T18:38:35.549Z,97849.94
2022-11-23T18:41:03.152Z,97853.41
2022-11-23T18:43:30.171Z,97853.53
2022-11-23T18:45:57.548Z,97852.00
2022-11-23T18:48:25.014Z,97841.34
2022-11-23T18:50:54.466Z,97858.97
2022-11-23T18:53:21.864Z,97867.97
2022-11-23T18:55:50.089Z,97851.34
2022-11-23T18:58:18.305Z,97870.47
2022-11-23T19:00:45.568Z,97873.25
2022-11-23T19:03:13.408Z,97852.88
2022-11-23T19:05:40.425Z,97873.25
2022-11-23T19:08:08.597Z,97872.41
2022-11-23T19:10:38.682Z,97856.22
2022-11-23T19:13:06.426Z,97875.06
2022-11-23T19:15:33.796Z,97865.50
2022-11-23T19:18:01.402Z,97862.03
2022-11-23T19:20:29.406Z,97877.84
2022-11-23T19:22:56.765Z,97882.28
2022-11-23T19:25:23.928Z,97858.44
2022-11-23T19:27:51.767Z,97854.00
2022-11-23T19:30:19.257Z,97864.66
2022-11-23T19:32:46.431Z,97868.13
2022-11-23T19:35:13.749Z,97878.66
2022-11-23T19:37:40.818Z,97888.50
2022-11-23T19:40:08.597Z,97889.06
2022-11-23T19:42:36.444Z,97894.88
2022-11-23T19:45:04.805Z,97905.44
2022-11-23T19:47:32.071Z,97902.34
2022-11-23T19:49:59.672Z,97880.63
2022-11-23T19:52:55.372Z,97900.44
2022-11-23T19:55:16.905Z,97906.41
2022-11-23T19:57:43.933Z,97893.94
2022-11-23T20:00:11.972Z,97901.44
2022-11-23T20:02:39.205Z,97917.38
2022-11-23T20:05:08.356Z,97911.25
2022-11-23T20:07:35.667Z,97916.25
2022-11-23T20:10:03.505Z,97922.75
2022-11-23T20:12:30.894Z,97926.50
2022-11-23T20:14:58.614Z,97916.81
2022-11-23T20:17:26.418Z,97932.06
2022-11-23T20:19:54.746Z,97912.94
2022-11-23T20:22:22.528Z,97936.50
2022-11-23T20:24:52.713Z,97934.53
2022-11-23T20:27:22.065Z,97936.50
2022-11-23T20:29:49.774Z,97934.13
2022-11-23T20:32:17.250Z,97926.91
2022-11-23T20:34:44.662Z,97925.13
2022-11-23T20:37:13.116Z,97931.66
2022-11-23T20:39:40.619Z,97919.03
2022-11-23T20:42:08.082Z,97920.69
2022-11-23T20:44:36.119Z,97931.53
2022-11-23T20:47:04.256Z,97943.44
2022-11-23T20:49:32.227Z,97927.38
2022-11-23T20:52:00.385Z,97948.28
2022-11-23T20:54:27.641Z,97945.78
2022-11-23T20:56:55.208Z,97935.13
2022-11-23T20:59:24.207Z,97951.91
2022-11-23T21:01:51.896Z,97948.16
2022-11-23T21:04:19.724Z,97945.50
2022-11-23T21:06:47.030Z,97952.72
2022-11-23T21:09:14.643Z,97951.75
2022-11-23T21:12:00.640Z,97950.50
2022-11-23T21:14:28.673Z,97948.97
2022-11-23T21:16:59.518Z,97949.81
2022-11-23T21:19:29.691Z,97954.25
2022-11-23T21:22:06.035Z,97948.00
2022-11-23T21:24:36.427Z,97961.19
2022-11-23T21:27:06.142Z,97957.56
2022-11-23T21:29:33.902Z,97946.19
2022-11-23T21:32:02.001Z,97950.63
2022-11-23T21:34:31.065Z,97965.63
2022-11-23T21:36:58.656Z,97964.09
2022-11-23T21:39:27.243Z,97966.88
2022-11-23T21:41:55.445Z,97966.03
2022-11-23T21:44:23.556Z,97977.53
2022-11-23T21:46:54.429Z,97972.41
2022-11-23T21:49:23.612Z,97975.91
2022-11-23T21:51:54.229Z,97982.13
2022-11-23T21:54:21.780Z,97991.97
2022-11-23T21:56:49.605Z,97990.16
2022-11-23T21:59:17.241Z,97979.63
2022-11-23T22:01:44.696Z,97993.63
2022-11-23T22:04:15.882Z,97994.47
2022-11-23T22:06:45.552Z,97995.84
2022-11-23T22:09:13.686Z,98001.94
2022-11-23T22:11:43.624Z,98009.69
2022-11-23T22:14:16.629Z,98006.38
2022-11-23T22:16:47.968Z,97995.56
2022-11-23T22:19:16.726Z,98015.53
2022-11-23T22:21:45.674Z,98018.84
2022-11-23T22:24:15.844Z,98023.84
2022-11-23T22:26:43.929Z,98008.84
2022-11-23T22:29:12.735Z,98032.44
2022-11-23T22:31:41.779Z,98029.13
2022-11-23T22:34:12.411Z,98029.13
2022-11-23T22:36:39.706Z,98027.28
2022-11-23T22:39:08.298Z,98039.94
2022-11-23T22:41:39.740Z,98036.44
2022-11-23T22:44:09.541Z,98045.19
2022-11-23T22:46:38.354Z,98040.88
2022-11-23T22:49:05.951Z,98048.50
2022-11-23T22:51:33.561Z,98051.31
2022-11-23T22:54:01.568Z,98057.69
2022-11-23T22:56:30.975Z,98068.06
2022-11-23T22:58:58.392Z,98069.16
2022-11-23T23:01:29.253Z,98071.78
2022-11-23T23:03:58.179Z,98060.41
2022-11-23T23:06:28.817Z,98075.53
2022-11-23T23:08:58.243Z,98080.94
2022-11-23T23:11:28.386Z,98074.84
2022-11-23T23:13:56.704Z,98073.31
2022-11-23T23:16:24.419Z,98082.06
2022-11-23T23:18:51.982Z,98071.47
2022-11-23T23:21:21.505Z,98077.84
2022-11-23T23:23:54.088Z,98101.56
2022-11-23T23:26:24.864Z,98106.13
2022-11-23T23:28:56.698Z,98111.28
2022-11-23T23:31:24.289Z,98123.63
2022-11-23T23:33:51.782Z,98125.16
2022-11-23T23:36:21.400Z,98121.25
2022-11-23T23:38:50.824Z,98125.84
2022-11-23T23:41:18.040Z,98131.25
2022-11-23T23:43:45.296Z,98135.81
2022-11-23T23:46:14.023Z,98120.41
2022-11-23T23:48:42.259Z,98132.78
2022-11-23T23:51:13.705Z,98142.47
2022-11-23T23:53:41.485Z,98140.81
2022-11-23T23:56:19.017Z,98135.53
2022-11-23T23:58:46.255Z,98124.16
